sensor_id;sensor_type;location;lat;lon;timestamp;pressure;altitude;pressure_sealevel;temperature;humidity
70815;BME280;58428;49.478;10.986;2023-05-03T00:00:50;99295.28;;;8.73;100.00
70815;BME280;58428;49.478;10.986;2023-05-03T00:03:15;99297.75;;;8.70;100.00
70815;BME280;58428;49.478;10.986;2023-05-03T00:05:41;99295.34;;;8.68;100.00
70815;BME280;58428;49.478;10.986;2023-05-03T00:08:07;99298.84;;;8.69;100.00
70815;BME280;58428;49.478;10.986;2023-05-03T00:10:33;99305.13;;;8.64;100.00
70815;BME280;58428;49.478;10.986;2023-05-03T00:12:59;99298.44;;;8.62;100.00
70815;BME280;58428;49.478;10.986;2023-05-03T00:15:24;99298.72;;;8.60;100.00
70815;BME280;58428;49.478;10.986;2023-05-03T00:17:53;99286.63;;;8.58;100.00
70815;BME280;58428;49.478;10.986;2023-05-03T00:20:19;99289.38;;;8.53;100.00
70815;BME280;58428;49.478;10.986;2023-05-03T00:22:45;99292.28;;;8.56;100.00
70815;BME280;58428;49.478;10.986;2023-05-03T00:25:10;99285.78;;;8.57;100.00
70815;BME280;58428;49.478;10.986;2023-05-03T00:27:35;99289.47;;;8.48;100.00
70815;BME280;58428;49.478;10.986;2023-05-03T00:30:01;99286.25;;;8.46;100.00
70815;BME280;58428;49.478;10.986;2023-05-03T00:32:28;99289.09;;;8.54;100.00
70815;BME280;58428;49.478;10.986;2023-05-03T00:34:54;99286.97;;;8.51;100.00
70815;BME280;58428;49.478;10.986;2023-05-03T00:37:20;99292.66;;;8.50;100.00
70815;BME280;58428;49.478;10.986;2023-05-03T00:39:45;99286.38;;;8.54;100.00
70815;BME280;58428;49.478;10.986;2023-05-03T00:42:11;99286.38;;;8.54;100.00
70815;BME280;58428;49.478;10.986;2023-05-03T00:44:36;99276.03;;;8.43;100.00
70815;BME280;58428;49.478;10.986;2023-05-03T00:47:02;99284.22;;;8.38;100.00
70815;BME280;58428;49.478;10.986;2023-05-03T00:49:28;99287.75;;;8.34;100.00
70815;BME280;58428;49.478;10.986;2023-05-03T00:51:53;99285.88;;;8.34;100.00
70815;BME280;58428;49.478;10.986;2023-05-03T00:54:19;99291.84;;;8.31;100.00
70815;BME280;58428;49.478;10.986;2023-05-03T00:56:47;99279.53;;;8.25;100.00
70815;BME280;58428;49.478;10.986;2023-05-03T00:59:12;99279.66;;;8.15;100.00
70815;BME280;58428;49.478;10.986;2023-05-03T01:01:38;99272.47;;;8.11;100.00
70815;BME280;58428;49.478;10.986;2023-05-03T01:04:05;99268.38;;;8.08;100.00
70815;BME280;58428;49.478;10.986;2023-05-03T01:09:13;99280.09;;;7.99;100.00
70815;BME280;58428;49.478;10.986;2023-05-03T01:11:47;99276.59;;;7.99;100.00
70815;BME280;58428;49.478;10.986;2023-05-03T01:14:27;99277.19;;;7.96;100.00
70815;BME280;58428;49.478;10.986;2023-05-03T01:17:22;99272.59;;;7.96;100.00
70815;BME280;58428;49.478;10.986;2023-05-03T01:19:51;99274.50;;;7.96;100.00
70815;BME280;58428;49.478;10.986;2023-05-03T01:22:45;99275.84;;;7.93;100.00
70815;BME280;58428;49.478;10.986;2023-05-03T01:25:12;99268.13;;;7.87;100.00
70815;BME280;58428;49.478;10.986;2023-05-03T01:27:39;99266.31;;;7.82;100.00
70815;BME280;58428;49.478;10.986;2023-05-03T01:30:10;99269.06;;;7.77;100.00
70815;BME280;58428;49.478;10.986;2023-05-03T01:37:57;99266.19;;;7.69;100.00
70815;BME280;58428;49.478;10.986;2023-05-03T01:40:24;99267.59;;;7.67;100.00
70815;BME280;58428;49.478;10.986;2023-05-03T01:42:51;99267.84;;;7.65;100.00
70815;BME280;58428;49.478;10.986;2023-05-03T01:45:19;99268.13;;;7.64;100.00
70815;BME280;58428;49.478;10.986;2023-05-03T01:47:44;99271.06;;;7.67;100.00
70815;BME280;58428;49.478;10.986;2023-05-03T01:50:10;99274.63;;;7.63;100.00
70815;BME280;58428;49.478;10.986;2023-05-03T01:52:35;99273.06;;;7.57;100.00
70815;BME280;58428;49.478;10.986;2023-05-03T01:55:01;99266.94;;;7.51;100.00
70815;BME280;58428;49.478;10.986;2023-05-03T01:57:27;99268.78;;;7.56;100.00
70815;BME280;58428;49.478;10.986;2023-05-03T01:59:53;99269.16;;;7.44;100.00
70815;BME280;58428;49.478;10.986;2023-05-03T02:02:18;99275.44;;;7.35;100.00
70815;BME280;58428;49.478;10.986;2023-05-03T02:04:44;99278.13;;;7.35;100.00
70815;BME280;58428;49.478;10.986;2023-05-03T02:07:09;99271.78;;;7.26;100.00
70815;BME280;58428;49.478;10.986;2023-05-03T02:09:35;99269.59;;;7.28;100.00
70815;BME280;58428;49.478;10.986;2023-05-03T02:12:00;99273.94;;;7.24;100.00
70815;BME280;58428;49.478;10.986;2023-05-03T02:14:27;99272.16;;;7.15;100.00
70815;BME280;58428;49.478;10.986;2023-05-03T02:16:53;99269.47;;;7.15;100.00
70815;BME280;58428;49.478;10.986;2023-05-03T02:19:20;99274.06;;;7.09;100.00
70815;BME280;58428;49.478;10.986;2023-05-03T02:21:46;99282.44;;;7.08;100.00
70815;BME280;58428;49.478;10.986;2023-05-03T02:24:14;99279.78;;;7.03;100.00
70815;BME280;58428;49.478;10.986;2023-05-03T02:26:40;99269.59;;;7.00;100.00
70815;BME280;58428;49.478;10.986;2023-05-03T02:29:06;99273.06;;;7.00;100.00
70815;BME280;58428;49.478;10.986;2023-05-03T02:31:31;99274.16;;;6.99;100.00
70815;BME280;58428;49.478;10.986;2023-05-03T02:33:57;99280.63;;;6.98;100.00
70815;BME280;58428;49.478;10.986;2023-05-03T02:36:25;99273.13;;;6.96;100.00
70815;BME280;58428;49.478;10.986;2023-05-03T02:38:52;99275.53;;;6.97;100.00
70815;BME280;58428;49.478;10.986;2023-05-03T02:41:17;99273.66;;;6.97;100.00
70815;BME280;58428;49.478;10.986;2023-05-03T02:43:43;99267.75;;;6.96;100.00
70815;BME280;58428;49.478;10.986;2023-05-03T02:46:09;99269.66;;;6.90;100.00
70815;BME280;58428;49.478;10.986;2023-05-03T02:48:35;99282.06;;;6.91;100.00
70815;BME280;58428;49.478;10.986;2023-05-03T02:51:04;99280.69;;;6.94;100.00
70815;BME280;58428;49.478;10.986;2023-05-03T02:53:30;99278.53;;;6.91;100.00
70815;BME280;58428;49.478;10.986;2023-05-03T02:55:55;99277.81;;;6.85;100.00
70815;BME280;58428;49.478;10.986;2023-05-03T02:58:21;99277.81;;;6.80;100.00
70815;BME280;58428;49.478;10.986;2023-05-03T03:00:46;99285.91;;;6.75;100.00
70815;BME280;58428;49.478;10.986;2023-05-03T03:03:12;99281.06;;;6.77;100.00
70815;BME280;58428;49.478;10.986;2023-05-03T03:05:38;99277.63;;;6.72;100.00
70815;BME280;58428;49.478;10.986;2023-05-03T03:08:04;99280.03;;;6.73;100.00
70815;BME280;58428;49.478;10.986;2023-05-03T03:10:30;99275.75;;;6.72;100.00
70815;BME280;58428;49.478;10.986;2023-05-03T03:12:56;99272.53;;;6.70;100.00
70815;BME280;58428;49.478;10.986;2023-05-03T03:15:21;99275.50;;;6.69;100.00
70815;BME280;58428;49.478;10.986;2023-05-03T03:17:46;99276.59;;;6.68;100.00
70815;BME280;58428;49.478;10.986;2023-05-03T03:20:13;99277.13;;;6.65;100.00
70815;BME280;58428;49.478;10.986;2023-05-03T03:22:40;99286.84;;;6.61;100.00
70815;BME280;58428;49.478;10.986;2023-05-03T03:25:08;99276.66;;;6.58;100.00
70815;BME280;58428;49.478;10.986;2023-05-03T03:27:34;99286.59;;;6.58;100.00
70815;BME280;58428;49.478;10.986;2023-05-03T03:29:59;99283.94;;;6.53;100.00
70815;BME280;58428;49.478;10.986;2023-05-03T03:32:25;99283.69;;;6.49;100.00
70815;BME280;58428;49.478;10.986;2023-05-03T03:34:50;99288.28;;;6.49;100.00
70815;BME280;58428;49.478;10.986;2023-05-03T03:37:18;99283.19;;;6.47;100.00
70815;BME280;58428;49.478;10.986;2023-05-03T03:39:46;99285.66;;;6.39;100.00
70815;BME280;58428;49.478;10.986;2023-05-03T03:42:12;99286.47;;;6.34;100.00
70815;BME280;58428;49.478;10.986;2023-05-03T03:44:39;99292.94;;;6.28;100.00
70815;BME280;58428;49.478;10.986;2023-05-03T03:47:05;99297.25;;;6.29;100.00
70815;BME280;58428;49.478;10.986;2023-05-03T03:49:30;99296.41;;;6.34;100.00
70815;BME280;58428;49.478;10.986;2023-05-03T03:51:55;99298.84;;;6.35;100.00
70815;BME280;58428;49.478;10.986;2023-05-03T03:54:21;99298.03;;;6.35;100.00
70815;BME280;58428;49.478;10.986;2023-05-03T03:56:46;99303.69;;;6.33;100.00
70815;BME280;58428;49.478;10.986;2023-05-03T03:59:12;99307.16;;;6.34;100.00
70815;BME280;58428;49.478;10.986;2023-05-03T04:01:37;99311.22;;;6.31;100.00
70815;BME280;58428;49.478;10.986;2023-05-03T04:04:03;99317.41;;;6.27;100.00
70815;BME280;58428;49.478;10.986;2023-05-03T04:06:28;99317.41;;;6.32;100.00
70815;BME280;58428;49.478;10.986;2023-05-03T04:08:54;99310.41;;;6.31;100.00
70815;BME280;58428;49.478;10.986;2023-05-03T04:11:20;99320.59;;;6.34;100.00
70815;BME280;58428;49.478;10.986;2023-05-03T04:13:46;99316.59;;;6.31;100.00
70815;BME280;58428;49.478;10.986;2023-05-03T04:16:11;99321.41;;;6.34;100.00
70815;BME280;58428;49.478;10.986;2023-05-03T04:18:37;99330.03;;;6.31;100.00
70815;BME280;58428;49.478;10.986;2023-05-03T04:21:02;99327.31;;;6.36;100.00
70815;BME280;58428;49.478;10.986;2023-05-03T04:23:27;99330.28;;;6.35;100.00
70815;BME280;58428;49.478;10.986;2023-05-03T04:25:54;99331.88;;;6.36;100.00
70815;BME280;58428;49.478;10.986;2023-05-03T04:28:21;99329.44;;;6.39;100.00
70815;BME280;58428;49.478;10.986;2023-05-03T04:30:47;99332.16;;;6.39;100.00
70815;BME280;58428;49.478;10.986;2023-05-03T04:33:14;99337.00;;;6.37;100.00
70815;BME280;58428;49.478;10.986;2023-05-03T04:35:40;99339.94;;;6.41;100.00
70815;BME280;58428;49.478;10.986;2023-05-03T04:38:05;99350.91;;;6.49;100.00
70815;BME280;58428;49.478;10.986;2023-05-03T04:40:31;99362.97;;;6.52;100.00
70815;BME280;58428;49.478;10.986;2023-05-03T04:42:56;99365.13;;;6.55;100.00
70815;BME280;58428;49.478;10.986;2023-05-03T04:45:22;99374.78;;;6.56;100.00
70815;BME280;58428;49.478;10.986;2023-05-03T04:47:48;99370.50;;;6.55;100.00
70815;BME280;58428;49.478;10.986;2023-05-03T04:50:14;99363.25;;;6.50;100.00
70815;BME280;58428;49.478;10.986;2023-05-03T04:52:40;99364.03;;;6.56;100.00
70815;BME280;58428;49.478;10.986;2023-05-03T04:55:05;99372.34;;;6.59;100.00
70815;BME280;58428;49.478;10.986;2023-05-03T04:57:33;99378.50;;;6.64;100.00
70815;BME280;58428;49.478;10.986;2023-05-03T04:59:59;99381.44;;;6.68;100.00
70815;BME280;58428;49.478;10.986;2023-05-03T05:02:25;99377.13;;;6.72;100.00
70815;BME280;58428;49.478;10.986;2023-05-03T05:04:52;99373.84;;;6.80;100.00
70815;BME280;58428;49.478;10.986;2023-05-03T05:07:17;99376.22;;;6.81;100.00
70815;BME280;58428;49.478;10.986;2023-05-03T05:09:43;99373.19;;;6.93;100.00
70815;BME280;58428;49.478;10.986;2023-05-03T05:12:08;99374.50;;;7.00;100.00
70815;BME280;58428;49.478;10.986;2023-05-03T05:14:34;99380.66;;;7.05;100.00
70815;BME280;58428;49.478;10.986;2023-05-03T05:16:59;99378.75;;;7.11;100.00
70815;BME280;58428;49.478;10.986;2023-05-03T05:19:25;99387.34;;;7.13;100.00
70815;BME280;58428;49.478;10.986;2023-05-03T05:21:52;99378.69;;;7.16;100.00
70815;BME280;58428;49.478;10.986;2023-05-03T05:24:18;99378.91;;;7.24;100.00
70815;BME280;58428;49.478;10.986;2023-05-03T05:26:44;99381.28;;;7.31;100.00
70815;BME280;58428;49.478;10.986;2023-05-03T05:29:10;99393.88;;;7.35;100.00
70815;BME280;58428;49.478;10.986;2023-05-03T05:31:35;99392.72;;;7.46;100.00
70815;BME280;58428;49.478;10.986;2023-05-03T05:34:02;99388.03;;;7.56;100.00
70815;BME280;58428;49.478;10.986;2023-05-03T05:36:27;99394.16;;;7.67;100.00
70815;BME280;58428;49.478;10.986;2023-05-03T05:38:54;99398.97;;;7.69;100.00
70815;BME280;58428;49.478;10.986;2023-05-03T05:41:20;99392.97;;;7.77;100.00
70815;BME280;58428;49.478;10.986;2023-05-03T05:43:45;99401.75;;;7.88;100.00
70815;BME280;58428;49.478;10.986;2023-05-03T05:46:11;99397.06;;;7.98;100.00
70815;BME280;58428;49.478;10.986;2023-05-03T05:48:37;99395.59;;;8.10;100.00
70815;BME280;58428;49.478;10.986;2023-05-03T05:51:03;99395.16;;;8.27;100.00
70815;BME280;58428;49.478;10.986;2023-05-03T05:53:29;99396.44;;;8.34;100.00
70815;BME280;58428;49.478;10.986;2023-05-03T05:55:55;99397.09;;;8.44;100.00
70815;BME280;58428;49.478;10.986;2023-05-03T05:58:20;99396.22;;;8.49;100.00
70815;BME280;58428;49.478;10.986;2023-05-03T06:00:45;99402.38;;;8.54;100.00
70815;BME280;58428;49.478;10.986;2023-05-03T06:03:14;99398.22;;;8.62;100.00
70815;BME280;58428;49.478;10.986;2023-05-03T06:05:40;99405.94;;;8.68;100.00
70815;BME280;58428;49.478;10.986;2023-05-03T06:08:06;99405.03;;;8.78;100.00
70815;BME280;58428;49.478;10.986;2023-05-03T06:10:31;99404.59;;;8.89;100.00
70815;BME280;58428;49.478;10.986;2023-05-03T06:12:57;99397.28;;;9.08;100.00
70815;BME280;58428;49.478;10.986;2023-05-03T06:15:24;99405.38;;;9.26;100.00
70815;BME280;58428;49.478;10.986;2023-05-03T06:17:50;99395.72;;;9.38;100.00
70815;BME280;58428;49.478;10.986;2023-05-03T06:20:17;99402.47;;;9.54;100.00
70815;BME280;58428;49.478;10.986;2023-05-03T06:22:43;99405.75;;;9.69;100.00
70815;BME280;58428;49.478;10.986;2023-05-03T06:25:09;99405.19;;;9.86;100.00
70815;BME280;58428;49.478;10.986;2023-05-03T06:27:39;99401.22;;;9.96;100.00
70815;BME280;58428;49.478;10.986;2023-05-03T06:30:05;99397.84;;;9.91;100.00
70815;BME280;58428;49.478;10.986;2023-05-03T06:32:31;99392.75;;;10.03;100.00
70815;BME280;58428;49.478;10.986;2023-05-03T06:34:56;99396.06;;;10.13;100.00
70815;BME280;58428;49.478;10.986;2023-05-03T06:37:23;99388.66;;;10.19;100.00
70815;BME280;58428;49.478;10.986;2023-05-03T06:39:49;99393.94;;;10.24;100.00
70815;BME280;58428;49.478;10.986;2023-05-03T06:42:15;99393.56;;;10.43;100.00
70815;BME280;58428;49.478;10.986;2023-05-03T06:44:41;99402.38;;;10.49;100.00
70815;BME280;58428;49.478;10.986;2023-05-03T06:47:06;99388.72;;;10.80;100.00
70815;BME280;58428;49.478;10.986;2023-05-03T06:49:32;99387.78;;;10.98;100.00
70815;BME280;58428;49.478;10.986;2023-05-03T06:51:57;99394.25;;;11.10;100.00
70815;BME280;58428;49.478;10.986;2023-05-03T06:54:24;99391.97;;;11.04;100.00
70815;BME280;58428;49.478;10.986;2023-05-03T06:56:49;99389.81;;;11.14;100.00
70815;BME280;58428;49.478;10.986;2023-05-03T06:59:15;99395.19;;;11.28;100.00
70815;BME280;58428;49.478;10.986;2023-05-03T07:01:41;99383.56;;;11.27;100.00
70815;BME280;58428;49.478;10.986;2023-05-03T07:04:08;99380.22;;;11.30;100.00
70815;BME280;58428;49.478;10.986;2023-05-03T07:06:34;99379.69;;;11.41;100.00
70815;BME280;58428;49.478;10.986;2023-05-03T07:08:59;99373.28;;;11.59;100.00
70815;BME280;58428;49.478;10.986;2023-05-03T07:11:25;99367.22;;;11.84;100.00
70815;BME280;58428;49.478;10.986;2023-05-03T07:13:51;99379.47;;;12.03;100.00
70815;BME280;58428;49.478;10.986;2023-05-03T07:16:17;99373.97;;;12.25;100.00
70815;BME280;58428;49.478;10.986;2023-05-03T07:18:43;99370.56;;;12.58;100.00
70815;BME280;58428;49.478;10.986;2023-05-03T07:21:08;99367.59;;;12.76;100.00
70815;BME280;58428;49.478;10.986;2023-05-03T07:23:34;99365.69;;;12.85;100.00
70815;BME280;58428;49.478;10.986;2023-05-03T07:26:00;99352.28;;;12.88;100.00
70815;BME280;58428;49.478;10.986;2023-05-03T07:28:26;99355.75;;;12.64;100.00
70815;BME280;58428;49.478;10.986;2023-05-03T07:30:51;99353.97;;;12.59;100.00
70815;BME280;58428;49.478;10.986;2023-05-03T07:33:16;99347.94;;;12.71;100.00
70815;BME280;58428;49.478;10.986;2023-05-03T07:35:45;99345.03;;;12.50;100.00
70815;BME280;58428;49.478;10.986;2023-05-03T07:38:10;99342.44;;;12.54;100.00
70815;BME280;58428;49.478;10.986;2023-05-03T07:40:36;99340.38;;;12.51;100.00
70815;BME280;58428;49.478;10.986;2023-05-03T07:43:04;99339.47;;;12.72;100.00
70815;BME280;58428;49.478;10.986;2023-05-03T07:45:29;99340.00;;;12.91;100.00
70815;BME280;58428;49.478;10.986;2023-05-03T07:47:55;99340.81;;;13.00;100.00
70815;BME280;58428;49.478;10.986;2023-05-03T07:50:21;99325.97;;;12.89;100.00
70815;BME280;58428;49.478;10.986;2023-05-03T07:52:46;99333.63;;;12.95;100.00
70815;BME280;58428;49.478;10.986;2023-05-03T07:55:19;99330.91;;;12.95;100.00
70815;BME280;58428;49.478;10.986;2023-05-03T07:57:45;99326.09;;;12.92;100.00
70815;BME280;58428;49.478;10.986;2023-05-03T08:00:11;99325.31;;;12.92;100.00
70815;BME280;58428;49.478;10.986;2023-05-03T08:02:38;99326.41;;;13.08;100.00
70815;BME280;58428;49.478;10.986;2023-05-03T08:05:04;99323.38;;;13.09;100.00
70815;BME280;58428;49.478;10.986;2023-05-03T08:07:30;99319.53;;;13.10;100.00
70815;BME280;58428;49.478;10.986;2023-05-03T08:09:57;99322.13;;;13.07;100.00
70815;BME280;58428;49.478;10.986;2023-05-03T08:12:25;99317.63;;;13.19;100.00
70815;BME280;58428;49.478;10.986;2023-05-03T08:14:52;99322.09;;;13.32;100.00
70815;BME280;58428;49.478;10.986;2023-05-03T08:17:18;99321.63;;;13.13;100.00
70815;BME280;58428;49.478;10.986;2023-05-03T08:19:44;99314.91;;;13.02;100.00
70815;BME280;58428;49.478;10.986;2023-05-03T08:22:19;99305.50;;;12.91;100.00
70815;BME280;58428;49.478;10.986;2023-05-03T08:24:45;99309.16;;;13.12;100.00
70815;BME280;58428;49.478;10.986;2023-05-03T08:27:10;99312.69;;;13.13;100.00
70815;BME280;58428;49.478;10.986;2023-05-03T08:29:36;99314.44;;;13.17;100.00
70815;BME280;58428;49.478;10.986;2023-05-03T08:32:04;99311.56;;;13.22;100.00
70815;BME280;58428;49.478;10.986;2023-05-03T08:34:30;99308.38;;;13.20;100.00
70815;BME280;58428;49.478;10.986;2023-05-03T08:36:55;99311.56;;;13.30;100.00
70815;BME280;58428;49.478;10.986;2023-05-03T08:39:21;99306.88;;;13.48;100.00
70815;BME280;58428;49.478;10.986;2023-05-03T08:41:48;99315.03;;;13.64;100.00
70815;BME280;58428;49.478;10.986;2023-05-03T08:44:20;99314.00;;;13.77;100.00
70815;BME280;58428;49.478;10.986;2023-05-03T08:46:50;99301.19;;;13.86;100.00
70815;BME280;58428;49.478;10.986;2023-05-03T08:49:18;99311.72;;;13.96;100.00
70815;BME280;58428;49.478;10.986;2023-05-03T08:51:45;99308.84;;;13.93;100.00
70815;BME280;58428;49.478;10.986;2023-05-03T08:54:15;99313.75;;;13.99;100.00
70815;BME280;58428;49.478;10.986;2023-05-03T08:56:48;99311.03;;;13.99;100.00
70815;BME280;58428;49.478;10.986;2023-05-03T08:59:15;99307.66;;;14.19;100.00
70815;BME280;58428;49.478;10.986;2023-05-03T09:01:41;99320.06;;;14.28;100.00
70815;BME280;58428;49.478;10.986;2023-05-03T09:04:10;99312.28;;;14.47;100.00
70815;BME280;58428;49.478;10.986;2023-05-03T09:06:36;99310.81;;;14.49;100.00
70815;BME280;58428;49.478;10.986;2023-05-03T09:09:03;99306.28;;;14.62;100.00
70815;BME280;58428;49.478;10.986;2023-05-03T09:11:32;99300.84;;;14.82;100.00
70815;BME280;58428;49.478;10.986;2023-05-03T09:14:15;99296.72;;;14.96;100.00
70815;BME280;58428;49.478;10.986;2023-05-03T09:16:42;99300.50;;;15.04;100.00
70815;BME280;58428;49.478;10.986;2023-05-03T09:19:13;99298.22;;;15.06;100.00
70815;BME280;58428;49.478;10.986;2023-05-03T09:21:40;99303.84;;;14.89;100.00
70815;BME280;58428;49.478;10.986;2023-05-03T09:24:16;99302.09;;;14.84;100.00
70815;BME280;58428;49.478;10.986;2023-05-03T09:26:46;99289.06;;;14.90;100.00
70815;BME280;58428;49.478;10.986;2023-05-03T09:29:30;99299.03;;;14.86;100.00
70815;BME280;58428;49.478;10.986;2023-05-03T09:32:03;99298.84;;;14.91;100.00
70815;BME280;58428;49.478;10.986;2023-05-03T09:34:33;99305.47;;;15.02;100.00
70815;BME280;58428;49.478;10.986;2023-05-03T09:37:00;99298.84;;;15.11;100.00
70815;BME280;58428;49.478;10.986;2023-05-03T09:39:26;99303.44;;;15.19;100.00
70815;BME280;58428;49.478;10.986;2023-05-03T09:41:52;99299.97;;;15.30;100.00
70815;BME280;58428;49.478;10.986;2023-05-03T09:44:18;99297.91;;;15.59;100.00
70815;BME280;58428;49.478;10.986;2023-05-03T09:47:05;99287.41;;;15.82;100.00
70815;BME280;58428;49.478;10.986;2023-05-03T09:49:30;99289.91;;;15.86;100.00
70815;BME280;58428;49.478;10.986;2023-05-03T09:51:58;99293.09;;;16.00;100.00
70815;BME280;58428;49.478;10.986;2023-05-03T09:54:24;99292.66;;;16.10;100.00
70815;BME280;58428;49.478;10.986;2023-05-03T09:56:51;99288.09;;;15.90;100.00
70815;BME280;58428;49.478;10.986;2023-05-03T09:59:19;99287.16;;;15.75;100.00
70815;BME280;58428;49.478;10.986;2023-05-03T10:01:44;99291.38;;;15.72;100.00
70815;BME280;58428;49.478;10.986;2023-05-03T10:04:14;99279.78;;;15.87;100.00
70815;BME280;58428;49.478;10.986;2023-05-03T10:06:45;99282.69;;;15.58;100.00
70815;BME280;58428;49.478;10.986;2023-05-03T10:09:16;99278.69;;;15.56;100.00
70815;BME280;58428;49.478;10.986;2023-05-03T10:11:50;99283.16;;;15.28;100.00
70815;BME280;58428;49.478;10.986;2023-05-03T10:14:21;99276.59;;;15.29;100.00
70815;BME280;58428;49.478;10.986;2023-05-03T10:17:07;99282.47;;;15.19;100.00
70815;BME280;58428;49.478;10.986;2023-05-03T10:19:46;99275.41;;;15.18;100.00
70815;BME280;58428;49.478;10.986;2023-05-03T10:22:14;99273.34;;;15.15;100.00
70815;BME280;58428;49.478;10.986;2023-05-03T10:27:40;99263.22;;;15.48;100.00
70815;BME280;58428;49.478;10.986;2023-05-03T10:30:08;99256.47;;;15.78;100.00
70815;BME280;58428;49.478;10.986;2023-05-03T10:32:51;99256.41;;;16.21;100.00
70815;BME280;58428;49.478;10.986;2023-05-03T10:35:16;99248.56;;;16.44;100.00
70815;BME280;58428;49.478;10.986;2023-05-03T10:37:44;99251.56;;;16.66;100.00
70815;BME280;58428;49.478;10.986;2023-05-03T10:40:14;99248.72;;;16.74;100.00
70815;BME280;58428;49.478;10.986;2023-05-03T10:42:51;99250.19;;;16.72;100.00
70815;BME280;58428;49.478;10.986;2023-05-03T10:45:28;99245.75;;;16.79;100.00
70815;BME280;58428;49.478;10.986;2023-05-03T10:53:53;99245.31;;;16.65;100.00
70815;BME280;58428;49.478;10.986;2023-05-03T10:56:18;99250.41;;;16.79;100.00
70815;BME280;58428;49.478;10.986;2023-05-03T10:58:48;99242.03;;;16.99;100.00
70815;BME280;58428;49.478;10.986;2023-05-03T11:01:21;99237.00;;;17.01;100.00
70815;BME280;58428;49.478;10.986;2023-05-03T11:06:41;99245.84;;;16.83;100.00
70815;BME280;58428;49.478;10.986;2023-05-03T11:09:08;99246.38;;;16.61;100.00
70815;BME280;58428;49.478;10.986;2023-05-03T11:11:36;99244.91;;;16.52;100.00
70815;BME280;58428;49.478;10.986;2023-05-03T11:14:04;99239.03;;;16.77;100.00
70815;BME280;58428;49.478;10.986;2023-05-03T11:16:29;99235.16;;;17.05;100.00
70815;BME280;58428;49.478;10.986;2023-05-03T11:18:56;99232.78;;;17.15;100.00
70815;BME280;58428;49.478;10.986;2023-05-03T11:21:24;99227.50;;;17.22;100.00
70815;BME280;58428;49.478;10.986;2023-05-03T11:23:50;99223.63;;;17.23;100.00
70815;BME280;58428;49.478;10.986;2023-05-03T11:26:15;99221.00;;;17.27;100.00
70815;BME280;58428;49.478;10.986;2023-05-03T11:28:42;99228.09;;;17.16;100.00
70815;BME280;58428;49.478;10.986;2023-05-03T11:31:09;99219.97;;;16.92;100.00
70815;BME280;58428;49.478;10.986;2023-05-03T11:33:38;99229.00;;;17.08;100.00
70815;BME280;58428;49.478;10.986;2023-05-03T11:36:06;99222.38;;;17.21;100.00
70815;BME280;58428;49.478;10.986;2023-05-03T11:38:36;99221.94;;;17.19;100.00
70815;BME280;58428;49.478;10.986;2023-05-03T11:41:11;99224.00;;;17.10;100.00
70815;BME280;58428;49.478;10.986;2023-05-03T11:43:47;99221.59;;;16.81;100.00
70815;BME280;58428;49.478;10.986;2023-05-03T11:46:24;99219.38;;;16.59;100.00
70815;BME280;58428;49.478;10.986;2023-05-03T11:48:50;99219.13;;;16.76;100.00
70815;BME280;58428;49.478;10.986;2023-05-03T11:51:21;99219.19;;;17.07;100.00
70815;BME280;58428;49.478;10.986;2023-05-03T11:53:47;99218.06;;;17.20;100.00
70815;BME280;58428;49.478;10.986;2023-05-03T11:56:13;99220.28;;;17.30;100.00
70815;BME280;58428;49.478;10.986;2023-05-03T11:58:51;99221.00;;;17.27;100.00
70815;BME280;58428;49.478;10.986;2023-05-03T12:01:18;99227.69;;;17.29;100.00
70815;BME280;58428;49.478;10.986;2023-05-03T12:03:44;99217.19;;;17.31;100.00
70815;BME280;58428;49.478;10.986;2023-05-03T12:06:15;99214.66;;;17.53;100.00
70815;BME280;58428;49.478;10.986;2023-05-03T12:08:41;99210.59;;;17.47;100.00
70815;BME280;58428;49.478;10.986;2023-05-03T12:11:07;99204.97;;;17.56;100.00
70815;BME280;58428;49.478;10.986;2023-05-03T12:13:33;99211.31;;;17.44;100.00
70815;BME280;58428;49.478;10.986;2023-05-03T12:16:06;99214.56;;;17.34;100.00
70815;BME280;58428;49.478;10.986;2023-05-03T12:21:20;99194.91;;;17.60;100.00
70815;BME280;58428;49.478;10.986;2023-05-03T12:23:47;99194.38;;;17.69;100.00
70815;BME280;58428;49.478;10.986;2023-05-03T12:26:19;99194.97;;;17.78;100.00
70815;BME280;58428;49.478;10.986;2023-05-03T12:28:47;99189.41;;;17.90;100.00
70815;BME280;58428;49.478;10.986;2023-05-03T12:31:14;99190.56;;;18.05;100.00
70815;BME280;58428;49.478;10.986;2023-05-03T12:33:41;99190.13;;;18.18;100.00
70815;BME280;58428;49.478;10.986;2023-05-03T12:36:07;99192.34;;;18.12;100.00
70815;BME280;58428;49.478;10.986;2023-05-03T12:38:33;99183.44;;;17.85;100.00
70815;BME280;58428;49.478;10.986;2023-05-03T12:41:00;99186.06;;;17.51;100.00
70815;BME280;58428;49.478;10.986;2023-05-03T12:43:27;99173.81;;;17.60;100.00
70815;BME280;58428;49.478;10.986;2023-05-03T12:45:53;99182.47;;;17.62;100.00
70815;BME280;58428;49.478;10.986;2023-05-03T12:48:18;99183.69;;;17.49;100.00
70815;BME280;58428;49.478;10.986;2023-05-03T12:50:43;99182.25;;;17.25;100.00
70815;BME280;58428;49.478;10.986;2023-05-03T12:53:09;99178.34;;;17.26;100.00
70815;BME280;58428;49.478;10.986;2023-05-03T12:55:35;99178.91;;;17.46;100.00
70815;BME280;58428;49.478;10.986;2023-05-03T12:58:00;99182.09;;;17.48;100.00
70815;BME280;58428;49.478;10.986;2023-05-03T13:00:26;99169.31;;;17.68;100.00
70815;BME280;58428;49.478;10.986;2023-05-03T13:02:52;99158.78;;;17.85;100.00
70815;BME280;58428;49.478;10.986;2023-05-03T13:05:18;99156.56;;;17.90;100.00
70815;BME280;58428;49.478;10.986;2023-05-03T13:07:45;99153.13;;;18.08;100.00